メインページ
METAR-TAF:

METAR-TAF

空港 :

Beaver Island Airport

Beaver Island, ミシガン州, アメリカ合衆国

緯度: 45-41-32N, 経度: 085-33-59W, 海抜: 204m

現時点の気象観測

当レポートは19分前の15:56(UTC)に作成
北西の風 7kt
気温 20°C
湿度 73%
気圧 1014 hPa
視程: 16.1km
高度6000ftの曇り

METAR: KSJX 211556Z AUTO 31007KT 10SM OVC060 20/15 A2993 RMK AO2 T02000149

時間: 12:15 (16:15 UTC)


TAF: 見つかりません

4,000以上の空港の気象観測と天気予報(METAR報とTAF報)

利用可能な観測所は地図上に黄色い丸と赤い丸で示す。

丸の上にカーソルを重ねると観測所名を参照できる。

次にクリックすると気象観測と天気予報を参照できる。

マップの切り替え:黒色「×」印の緑ボタンをクリックして拡大、「-」印の緑ボタンをクリックして縮小、緑色の三角印をクリックして隣りの地図に切り替え


METAR-TAF: